createdAt,value
2022-08-11T00:01:26.222Z,68.88
2022-08-11T00:04:00.751Z,68.74
2022-08-11T00:06:38.760Z,68.79
2022-08-11T00:09:15.906Z,68.72
2022-08-11T00:11:54.764Z,68.63
2022-08-11T00:14:37.592Z,68.65
2022-08-11T00:17:14.332Z,68.55
2022-08-11T00:20:13.977Z,68.57
2022-08-11T00:22:34.530Z,68.70
2022-08-11T00:25:11.491Z,68.84
2022-08-11T00:27:41.097Z,68.69
2022-08-11T00:30:11.273Z,68.97
2022-08-11T00:32:42.141Z,68.81
2022-08-11T00:35:53.663Z,68.82
2022-08-11T00:38:03.250Z,68.91
2022-08-11T00:40:43.808Z,69.07
2022-08-11T00:43:37.547Z,69.07
2022-08-11T00:46:38.404Z,69.41
2022-08-11T00:49:37.785Z,69.42
2022-08-11T00:52:28.545Z,69.44
2022-08-11T00:55:01.068Z,69.84
2022-08-11T00:58:22.465Z,69.90
2022-08-11T01:01:10.728Z,69.78
2022-08-11T01:04:11.194Z,69.99
2022-08-11T01:08:02.098Z,70.20
2022-08-11T01:10:40.345Z,70.22
2022-08-11T01:13:47.819Z,70.49
2022-08-11T01:16:38.211Z,70.94
2022-08-11T01:19:31.880Z,70.68
2022-08-11T01:22:33.476Z,70.55
2022-08-11T01:25:34.387Z,70.55
2022-08-11T01:28:48.589Z,70.59
2022-08-11T01:32:13.044Z,70.79
2022-08-11T01:35:21.402Z,70.91
2022-08-11T01:38:31.983Z,71.00
2022-08-11T01:41:13.732Z,70.91
2022-08-11T01:44:24.144Z,71.34
2022-08-11T01:47:35.273Z,71.28
2022-08-11T01:50:42.486Z,71.34
2022-08-11T01:53:12.217Z,71.34
2022-08-11T01:56:03.549Z,71.83
2022-08-11T01:59:05.576Z,71.91
2022-08-11T02:02:12.543Z,72.25
2022-08-11T02:05:13.644Z,72.14
2022-08-11T02:08:03.471Z,72.53
2022-08-11T02:11:10.070Z,72.33
2022-08-11T02:14:11.672Z,72.30
2022-08-11T02:17:03.016Z,72.27
2022-08-11T02:20:44.385Z,72.36
2022-08-11T02:24:04.858Z,72.23
2022-08-11T02:27:04.693Z,72.66
2022-08-11T02:29:42.643Z,72.60
2022-08-11T02:32:50.028Z,72.78
2022-08-11T02:35:36.075Z,72.73
2022-08-11T02:38:48.765Z,72.85
2022-08-11T02:41:59.745Z,72.93
2022-08-11T02:44:35.463Z,73.11
2022-08-11T02:47:27.644Z,73.32
2022-08-11T02:50:07.229Z,73.23
2022-08-11T02:52:59.045Z,73.45
2022-08-11T02:55:55.593Z,73.45
2022-08-11T02:58:27.325Z,73.53
2022-08-11T03:01:12.530Z,73.59
2022-08-11T03:04:01.041Z,73.64
2022-08-11T03:06:52.508Z,73.62
2022-08-11T03:09:58.169Z,73.61
2022-08-11T03:13:30.996Z,73.48
2022-08-11T03:16:42.180Z,73.73
2022-08-11T03:19:53.295Z,73.82
2022-08-11T03:22:33.702Z,73.79
2022-08-11T03:25:15.144Z,73.77
2022-08-11T03:27:59.872Z,73.68
2022-08-11T03:30:43.509Z,73.73
2022-08-11T03:33:43.889Z,73.60
2022-08-11T03:37:14.817Z,73.51
2022-08-11T03:39:52.690Z,73.43
2022-08-11T03:42:29.585Z,73.35
2022-08-11T03:45:40.996Z,73.35
2022-08-11T03:48:45.836Z,73.20
2022-08-11T03:51:44.532Z,73.17
2022-08-11T03:54:30.732Z,73.10
2022-08-11T03:57:23.664Z,73.14
2022-08-11T04:00:46.681Z,72.81
2022-08-11T04:03:31.065Z,72.70
2022-08-11T04:06:40.740Z,72.48
2022-08-11T04:09:54.241Z,72.42
2022-08-11T04:13:17.570Z,72.00
2022-08-11T04:16:11.486Z,71.68
2022-08-11T04:19:19.579Z,71.36
2022-08-11T04:21:55.080Z,71.00
2022-08-11T04:24:50.544Z,70.72
2022-08-11T04:28:00.652Z,70.50
2022-08-11T04:31:12.512Z,70.21
2022-08-11T04:34:46.612Z,70.05
2022-08-11T04:37:40.652Z,69.73
2022-08-11T04:41:16.701Z,69.46
2022-08-11T04:44:31.196Z,69.30
2022-08-11T04:48:09.527Z,68.52
2022-08-11T04:51:17.986Z,68.39
2022-08-11T04:54:28.753Z,68.16
2022-08-11T04:57:40.219Z,67.78
2022-08-11T05:00:30.778Z,67.19
2022-08-11T05:03:03.868Z,66.28
2022-08-11T05:05:57.541Z,66.03
2022-08-11T05:09:07.817Z,65.84
2022-08-11T05:12:09.463Z,66.19
2022-08-11T05:15:10.802Z,65.94
2022-08-11T05:18:14.105Z,65.77
2022-08-11T05:21:07.931Z,65.19
2022-08-11T05:23:59.357Z,64.56
2022-08-11T05:26:49.379Z,64.56
2022-08-11T05:29:53.884Z,64.33
2022-08-11T05:32:42.141Z,64.26
2022-08-11T05:35:10.132Z,64.08
2022-08-11T05:38:05.280Z,63.78
2022-08-11T05:40:53.240Z,63.62
2022-08-11T05:44:21.144Z,63.55
2022-08-11T05:47:00.860Z,63.51
2022-08-11T05:49:50.176Z,62.84
2022-08-11T05:52:43.304Z,62.85
2022-08-11T05:55:28.925Z,62.05
2022-08-11T05:58:01.755Z,62.06
2022-08-11T06:00:29.479Z,62.01
2022-08-11T06:03:03.396Z,62.00
2022-08-11T06:05:43.261Z,61.77
2022-08-11T06:08:14.236Z,61.82
2022-08-11T06:10:44.137Z,61.81
2022-08-11T06:13:16.378Z,61.85
2022-08-11T06:15:49.298Z,61.47
2022-08-11T06:18:16.656Z,60.51
2022-08-11T06:20:57.672Z,60.12
2022-08-11T06:23:31.641Z,60.04
2022-08-11T06:26:00.640Z,60.04
2022-08-11T06:28:35.769Z,59.19
2022-08-11T06:31:13.694Z,58.36
2022-08-11T06:33:49.992Z,58.40
2022-08-11T06:36:27.729Z,58.35
2022-08-11T06:39:28.722Z,57.99
2022-08-11T06:42:10.885Z,57.77
2022-08-11T06:45:04.576Z,57.84
2022-08-11T06:47:32.016Z,57.53
2022-08-11T06:50:18.907Z,56.84
2022-08-11T06:52:47.269Z,56.57
2022-08-11T06:55:57.812Z,56.25
2022-08-11T06:58:49.201Z,56.75
2022-08-11T07:01:36.468Z,56.63
2022-08-11T07:04:09.871Z,56.10
2022-08-11T07:07:30.154Z,56.11
2022-08-11T07:10:49.257Z,55.86
2022-08-11T07:13:44.434Z,55.53
2022-08-11T07:16:26.753Z,55.44
2022-08-11T07:19:23.488Z,54.88
2022-08-11T07:22:09.989Z,54.19
2022-08-11T07:25:02.329Z,53.90
2022-08-11T07:29:03.929Z,53.85
2022-08-11T07:31:52.652Z,53.16
2022-08-11T07:34:27.412Z,53.16
2022-08-11T07:36:58.256Z,52.86
2022-08-11T07:39:32.645Z,52.58
2022-08-11T07:42:06.286Z,52.88
2022-08-11T07:44:54.562Z,52.81
2022-08-11T07:47:41.378Z,52.38
2022-08-11T07:50:28.670Z,52.11
2022-08-11T07:53:00.235Z,52.14
2022-08-11T07:55:50.873Z,52.17
2022-08-11T07:58:41.455Z,51.82
2022-08-11T08:01:37.606Z,51.90
2022-08-11T08:04:25.677Z,51.43
2022-08-11T08:07:11.868Z,51.60
2022-08-11T08:09:58.612Z,50.48
2022-08-11T08:12:44.729Z,51.38
2022-08-11T08:15:33.879Z,51.49
2022-08-11T08:18:09.106Z,51.46
2022-08-11T08:20:54.524Z,50.19
2022-08-11T08:23:35.324Z,50.08
2022-08-11T08:26:29.854Z,50.22
2022-08-11T08:29:19.777Z,50.16
2022-08-11T08:31:50.516Z,50.28
2022-08-11T08:34:18.861Z,50.01
2022-08-11T08:36:48.256Z,48.96
2022-08-11T08:39:20.087Z,49.68
2022-08-11T08:41:53.929Z,49.75
2022-08-11T08:44:41.151Z,50.32
2022-08-11T08:47:41.451Z,49.50
2022-08-11T08:50:19.073Z,49.62
2022-08-11T08:53:04.740Z,48.99
2022-08-11T08:55:33.098Z,48.87
2022-08-11T08:58:00.701Z,49.02
2022-08-11T09:00:41.990Z,49.37
2022-08-11T09:03:38.192Z,49.08
2022-08-11T09:05:57.966Z,48.58
2022-08-11T09:08:25.325Z,48.84
2022-08-11T09:11:14.209Z,47.96
2022-08-11T09:13:45.350Z,47.95
2022-08-11T09:16:13.338Z,47.73
2022-08-11T09:18:45.694Z,48.05
2022-08-11T09:21:15.059Z,46.55
2022-08-11T09:24:26.367Z,47.30
2022-08-11T09:27:00.599Z,47.35
2022-08-11T09:29:30.417Z,46.76
2022-08-11T09:31:59.517Z,46.71
2022-08-11T09:34:27.801Z,45.29
2022-08-11T09:37:28.497Z,44.23
2022-08-11T09:40:21.792Z,44.28
2022-08-11T09:43:22.732Z,44.73
2022-08-11T09:45:53.404Z,43.70
2022-08-11T09:48:24.639Z,44.02
2022-08-11T09:50:56.406Z,43.83
2022-08-11T09:53:35.874Z,43.89
2022-08-11T09:56:35.297Z,44.05
2022-08-11T09:59:05.315Z,43.58
2022-08-11T10:01:58.549Z,43.52
2022-08-11T10:04:40.909Z,43.38
2022-08-11T10:07:10.269Z,43.02
2022-08-11T10:09:50.559Z,42.83
2022-08-11T10:12:35.481Z,43.25
2022-08-11T10:15:36.477Z,43.46
2022-08-11T10:18:27.326Z,41.28
2022-08-11T10:21:06.393Z,41.51
2022-08-11T10:24:01.437Z,40.46
2022-08-11T10:26:53.848Z,41.58
2022-08-11T10:30:07.826Z,41.84
2022-08-11T10:32:58.709Z,41.32
2022-08-11T10:35:29.890Z,41.23
2022-08-11T10:38:07.783Z,39.70
2022-08-11T10:40:44.645Z,40.09
2022-08-11T10:43:14.548Z,39.62
2022-08-11T10:46:27.550Z,39.98
2022-08-11T10:48:59.928Z,39.08
2022-08-11T10:51:51.212Z,39.66
2022-08-11T10:54:40.764Z,40.32
2022-08-11T10:57:27.913Z,40.69
2022-08-11T10:59:58.250Z,41.08
2022-08-11T11:02:29.436Z,40.52
2022-08-11T11:05:11.782Z,40.47
2022-08-11T11:07:50.172Z,39.12
2022-08-11T11:10:17.194Z,38.69
2022-08-11T11:13:13.596Z,38.01
2022-08-11T11:16:04.840Z,38.65
2022-08-11T11:18:36.122Z,38.13
2022-08-11T11:21:14.963Z,38.39
2022-08-11T11:24:10.414Z,36.66
2022-08-11T11:27:04.689Z,37.53
2022-08-11T11:30:02.936Z,37.84
2022-08-11T11:32:52.829Z,38.08
2022-08-11T11:35:50.401Z,36.99
2022-08-11T11:38:18.372Z,35.88
2022-08-11T11:41:06.621Z,36.15
2022-08-11T11:43:35.520Z,36.80
2022-08-11T11:46:06.153Z,36.55
2022-08-11T11:48:35.204Z,36.78
2022-08-11T11:51:02.972Z,36.81
2022-08-11T11:53:30.441Z,37.29
2022-08-11T11:55:59.192Z,37.44
2022-08-11T11:58:46.372Z,37.17
2022-08-11T12:01:19.206Z,37.08
2022-08-11T12:03:50.290Z,37.50
2022-08-11T12:06:20.696Z,37.79
2022-08-11T12:08:54.921Z,37.87
2022-08-11T12:11:43.674Z,37.07
2022-08-11T12:14:11.911Z,37.23
2022-08-11T12:16:42.776Z,37.53
2022-08-11T12:19:17.705Z,37.67
2022-08-11T12:22:04.888Z,37.95
2022-08-11T12:24:52.685Z,37.27
2022-08-11T12:27:24.247Z,37.25
2022-08-11T12:30:08.681Z,37.08
2022-08-11T12:32:38.164Z,37.15
2022-08-11T12:35:06.791Z,37.24
2022-08-11T12:37:51.391Z,37.25
2022-08-11T12:41:13.751Z,36.47
2022-08-11T12:43:56.870Z,36.95
2022-08-11T12:46:39.220Z,36.43
2022-08-11T12:49:44.753Z,36.87
2022-08-11T12:52:25.950Z,36.82
2022-08-11T12:55:13.509Z,35.91
2022-08-11T12:58:06.242Z,36.70
2022-08-11T13:00:52.041Z,37.00
2022-08-11T13:03:39.243Z,36.49
2022-08-11T13:06:08.553Z,35.92
2022-08-11T13:08:38.833Z,35.43
2022-08-11T13:11:56.776Z,35.60
2022-08-11T13:14:15.505Z,35.08
2022-08-11T13:17:02.879Z,35.22
2022-08-11T13:19:30.984Z,35.14
2022-08-11T13:22:00.196Z,35.18
2022-08-11T13:24:28.080Z,34.18
2022-08-11T13:26:55.776Z,34.23
2022-08-11T13:29:25.916Z,34.46
2022-08-11T13:31:58.026Z,34.31
2022-08-11T13:34:28.221Z,34.02
2022-08-11T13:37:00.293Z,34.62
2022-08-11T13:39:30.583Z,35.23
2022-08-11T13:42:01.030Z,35.22
2022-08-11T13:44:36.434Z,34.46
2022-08-11T13:47:07.306Z,34.77
2022-08-11T13:49:40.530Z,34.38
2022-08-11T13:52:16.195Z,34.51
2022-08-11T13:54:47.558Z,34.40
2022-08-11T13:58:08.699Z,34.61
2022-08-11T14:00:13.181Z,35.00
2022-08-11T14:02:56.646Z,35.34
2022-08-11T14:05:38.562Z,35.19
2022-08-11T14:08:32.428Z,35.11
2022-08-11T14:12:20.542Z,35.65
2022-08-11T14:14:16.425Z,35.92
2022-08-11T14:16:44.789Z,36.09
2022-08-11T14:19:14.524Z,36.44
2022-08-11T14:22:07.355Z,36.35
2022-08-11T14:24:48.895Z,36.21
2022-08-11T14:28:15.495Z,36.37
2022-08-11T14:30:26.348Z,36.42
2022-08-11T14:32:56.223Z,36.19
2022-08-11T14:35:28.378Z,36.02
2022-08-11T14:37:58.261Z,35.93
2022-08-11T14:40:44.213Z,35.95
2022-08-11T14:44:12.343Z,35.78
2022-08-11T14:46:36.599Z,35.91
2022-08-11T14:49:04.286Z,35.75
2022-08-11T14:51:33.565Z,35.16
2022-08-11T14:54:18.854Z,34.93
2022-08-11T14:56:45.989Z,34.80
2022-08-11T14:59:13.703Z,35.06
2022-08-11T15:02:00.358Z,34.61
2022-08-11T15:04:35.923Z,34.65
2022-08-11T15:07:05.034Z,35.15
2022-08-11T15:10:09.751Z,35.04
2022-08-11T15:12:33.944Z,34.91
2022-08-11T15:15:22.992Z,35.12
2022-08-11T15:17:53.469Z,34.99
2022-08-11T15:20:40.695Z,35.17
2022-08-11T15:23:26.144Z,35.01
2022-08-11T15:26:11.413Z,35.27
2022-08-11T15:29:09.170Z,35.44
2022-08-11T15:31:56.614Z,35.67
2022-08-11T15:34:47.382Z,35.76
2022-08-11T15:37:27.368Z,36.01
2022-08-11T15:40:32.995Z,36.05
2022-08-11T15:43:44.388Z,36.08
2022-08-11T15:46:17.461Z,36.14
2022-08-11T15:49:23.898Z,35.72
2022-08-11T15:52:03.409Z,34.79
2022-08-11T15:54:33.086Z,35.22
2022-08-11T15:57:02.512Z,35.50
2022-08-11T15:59:51.544Z,35.18
2022-08-11T16:02:41.104Z,35.18
2022-08-11T16:05:12.913Z,35.11
2022-08-11T16:07:42.327Z,35.78
2022-08-11T16:10:20.972Z,35.90
2022-08-11T16:13:07.192Z,36.11
2022-08-11T16:16:02.005Z,36.20
2022-08-11T16:18:41.878Z,36.02
2022-08-11T16:21:34.053Z,36.12
2022-08-11T16:26:17.616Z,36.56
2022-08-11T16:27:11.034Z,36.93
2022-08-11T16:29:47.350Z,37.19
2022-08-11T16:32:21.502Z,37.34
2022-08-11T16:35:16.698Z,37.24
2022-08-11T16:38:04.940Z,37.15
2022-08-11T16:40:33.968Z,37.31
2022-08-11T16:43:23.639Z,37.47
2022-08-11T16:46:10.764Z,37.07
2022-08-11T16:48:40.852Z,37.42
2022-08-11T16:51:11.537Z,37.58
2022-08-11T16:53:59.726Z,37.50
2022-08-11T16:56:41.640Z,37.40
2022-08-11T16:59:16.739Z,37.55
2022-08-11T17:01:58.576Z,37.59
2022-08-11T17:05:11.447Z,37.66
2022-08-11T17:08:02.247Z,38.00
2022-08-11T17:11:14.703Z,38.42
2022-08-11T17:14:01.101Z,38.31
2022-08-11T17:16:41.099Z,38.75
2022-08-11T17:20:42.417Z,38.91
2022-08-11T17:23:13.229Z,39.26
2022-08-11T17:25:59.156Z,39.15
2022-08-11T17:28:30.196Z,39.26
2022-08-11T17:31:21.793Z,39.48
2022-08-11T17:34:09.957Z,39.41
2022-08-11T17:36:41.663Z,39.71
2022-08-11T17:39:13.820Z,39.91
2022-08-11T17:42:01.333Z,39.97
2022-08-11T17:44:47.923Z,40.14
2022-08-11T17:47:36.111Z,40.44
2022-08-11T17:50:14.651Z,40.50
2022-08-11T17:53:05.698Z,40.77
2022-08-11T17:55:53.964Z,40.77
2022-08-11T17:58:41.380Z,41.17
2022-08-11T18:01:10.582Z,41.23
2022-08-11T18:03:57.841Z,41.49
2022-08-11T18:06:34.203Z,41.83
2022-08-11T18:09:26.444Z,42.29
2022-08-11T18:12:13.993Z,42.34
2022-08-11T18:15:05.416Z,42.68
2022-08-11T18:17:52.609Z,43.24
2022-08-11T18:20:38.577Z,43.73
2022-08-11T18:23:46.325Z,44.34
2022-08-11T18:26:38.656Z,44.45
2022-08-11T18:29:26.518Z,44.60
2022-08-11T18:32:21.811Z,45.02
2022-08-11T18:35:14.709Z,45.31
2022-08-11T18:38:07.154Z,45.54
2022-08-11T18:40:54.818Z,45.64
2022-08-11T18:43:43.965Z,45.74
2022-08-11T18:46:34.096Z,46.09
2022-08-11T18:50:02.334Z,46.54
2022-08-11T18:52:37.502Z,46.98
2022-08-11T18:55:29.719Z,47.27
2022-08-11T18:58:18.679Z,47.49
2022-08-11T19:01:06.111Z,47.75
2022-08-11T19:03:53.432Z,48.15
2022-08-11T19:06:42.057Z,48.58
2022-08-11T19:09:32.377Z,48.81
2022-08-11T19:12:19.857Z,49.02
2022-08-11T19:15:08.660Z,48.92
2022-08-11T19:17:58.242Z,49.08
2022-08-11T19:20:47.530Z,49.21
2022-08-11T19:23:38.396Z,49.37
2022-08-11T19:26:25.897Z,49.65
2022-08-11T19:30:06.981Z,50.00
2022-08-11T19:32:19.485Z,50.15
2022-08-11T19:35:05.988Z,50.93
2022-08-11T19:37:53.856Z,51.21
2022-08-11T19:40:40.532Z,51.41
2022-08-11T19:43:27.786Z,51.77
2022-08-11T19:46:17.044Z,51.89
2022-08-11T19:49:07.856Z,52.19
2022-08-11T19:51:55.448Z,52.57
2022-08-11T19:54:47.429Z,52.73
2022-08-11T19:57:39.668Z,53.16
2022-08-11T20:00:35.084Z,53.34
2022-08-11T20:03:26.013Z,53.50
2022-08-11T20:06:15.418Z,53.73
2022-08-11T20:09:03.635Z,54.06
2022-08-11T20:11:59.405Z,54.14
2022-08-11T20:14:49.773Z,54.16
2022-08-11T20:17:36.213Z,54.34
2022-08-11T20:20:26.823Z,54.67
2022-08-11T20:23:18.736Z,54.76
2022-08-11T20:26:27.851Z,54.94
2022-08-11T20:29:13.352Z,55.09
2022-08-11T20:32:00.167Z,55.30
2022-08-11T20:34:50.480Z,55.46
2022-08-11T20:37:40.019Z,55.56
2022-08-11T20:40:27.346Z,55.65
2022-08-11T20:44:06.738Z,56.10
2022-08-11T20:46:24.713Z,56.14
2022-08-11T20:49:12.852Z,56.32
2022-08-11T20:51:59.288Z,56.70
2022-08-11T20:54:46.063Z,56.52
2022-08-11T20:58:04.126Z,56.78
2022-08-11T21:00:44.063Z,56.87
2022-08-11T21:03:36.285Z,57.08
2022-08-11T21:06:33.261Z,57.13
2022-08-11T21:09:58.654Z,57.34
2022-08-11T21:15:47.631Z,57.62
2022-08-11T21:18:34.209Z,57.91
2022-08-11T21:21:26.231Z,57.97
2022-08-11T21:24:13.514Z,58.06
2022-08-11T21:27:05.926Z,58.14
2022-08-11T21:29:56.701Z,58.54
2022-08-11T21:32:42.651Z,58.83
2022-08-11T21:35:29.415Z,58.91
2022-08-11T21:38:16.683Z,59.17
2022-08-11T21:41:03.653Z,59.50
2022-08-11T21:43:50.694Z,59.41
2022-08-11T21:46:41.793Z,59.48
2022-08-11T21:49:29.309Z,59.73
2022-08-11T21:52:15.127Z,59.83
2022-08-11T21:55:01.516Z,60.24
2022-08-11T21:57:50.087Z,60.24
2022-08-11T22:00:35.729Z,60.46
2022-08-11T22:03:23.170Z,60.49
2022-08-11T22:06:09.563Z,60.55
2022-08-11T22:08:54.696Z,60.50
2022-08-11T22:11:40.457Z,60.39
2022-08-11T22:14:26.001Z,60.42
2022-08-11T22:17:11.412Z,60.38
2022-08-11T22:20:00.673Z,60.53
2022-08-11T22:22:51.874Z,60.68
2022-08-11T22:25:51.663Z,60.91
2022-08-11T22:28:41.000Z,60.96
2022-08-11T22:31:29.591Z,61.15
2022-08-11T22:34:15.166Z,61.37
2022-08-11T22:37:02.660Z,61.54
2022-08-11T22:40:02.574Z,61.52
2022-08-11T22:42:52.136Z,61.80
2022-08-11T22:45:38.829Z,62.03
2022-08-11T22:48:27.157Z,62.47
2022-08-11T22:51:15.703Z,62.51
2022-08-11T22:54:02.678Z,62.82
2022-08-11T22:56:49.968Z,63.06
2022-08-11T22:59:37.495Z,63.26
2022-08-11T23:02:25.116Z,63.39
2022-08-11T23:05:11.722Z,63.58
2022-08-11T23:07:57.542Z,63.69
2022-08-11T23:10:44.856Z,63.81
2022-08-11T23:13:31.825Z,63.82
2022-08-11T23:16:18.005Z,63.99
2022-08-11T23:19:04.367Z,64.12
2022-08-11T23:21:52.150Z,64.22
2022-08-11T23:24:39.180Z,64.35
2022-08-11T23:27:27.322Z,64.39
2022-08-11T23:30:18.865Z,64.38
2022-08-11T23:33:11.907Z,64.39
2022-08-11T23:36:05.336Z,64.43
2022-08-11T23:38:51.573Z,64.50
2022-08-11T23:41:37.546Z,64.61
2022-08-11T23:44:24.936Z,64.84
2022-08-11T23:47:16.925Z,64.90
2022-08-11T23:50:04.399Z,65.06
2022-08-11T23:52:53.483Z,65.15
2022-08-11T23:55:40.035Z,65.19
2022-08-11T23:58:27.245Z,65.33
